sensor_id;sensor_type;location;lat;lon;timestamp;temperature;humidity
24470;DHT22;12635;50.852;5.676;2023-01-24T00:00:48;1.70;99.90
24470;DHT22;12635;50.852;5.676;2023-01-24T00:03:15;1.80;99.90
24470;DHT22;12635;50.852;5.676;2023-01-24T00:05:43;1.80;99.90
24470;DHT22;12635;50.852;5.676;2023-01-24T00:08:12;1.70;99.90
24470;DHT22;12635;50.852;5.676;2023-01-24T00:10:39;1.80;99.90
24470;DHT22;12635;50.852;5.676;2023-01-24T00:13:06;1.70;99.90
24470;DHT22;12635;50.852;5.676;2023-01-24T00:15:34;1.70;99.90
24470;DHT22;12635;50.852;5.676;2023-01-24T00:18:01;1.80;99.90
24470;DHT22;12635;50.852;5.676;2023-01-24T00:20:28;1.70;99.90
24470;DHT22;12635;50.852;5.676;2023-01-24T00:22:55;1.80;99.90
24470;DHT22;12635;50.852;5.676;2023-01-24T00:25:23;1.70;99.90
24470;DHT22;12635;50.852;5.676;2023-01-24T00:27:50;1.80;99.90
24470;DHT22;12635;50.852;5.676;2023-01-24T00:30:17;1.70;99.90
24470;DHT22;12635;50.852;5.676;2023-01-24T00:32:44;1.70;99.90
24470;DHT22;12635;50.852;5.676;2023-01-24T00:35:11;1.70;99.90
24470;DHT22;12635;50.852;5.676;2023-01-24T00:37:37;1.70;99.90
24470;DHT22;12635;50.852;5.676;2023-01-24T00:40:06;1.70;99.90
24470;DHT22;12635;50.852;5.676;2023-01-24T00:42:34;1.60;99.90
24470;DHT22;12635;50.852;5.676;2023-01-24T00:45:01;1.70;99.90
24470;DHT22;12635;50.852;5.676;2023-01-24T00:47:28;1.60;99.90
24470;DHT22;12635;50.852;5.676;2023-01-24T00:49:55;1.60;99.90
24470;DHT22;12635;50.852;5.676;2023-01-24T00:52:22;1.70;99.90
24470;DHT22;12635;50.852;5.676;2023-01-24T00:54:49;1.70;99.90
24470;DHT22;12635;50.852;5.676;2023-01-24T00:57:16;1.70;99.90
24470;DHT22;12635;50.852;5.676;2023-01-24T00:59:44;1.70;99.90
24470;DHT22;12635;50.852;5.676;2023-01-24T01:02:11;1.70;99.90
24470;DHT22;12635;50.852;5.676;2023-01-24T01:04:38;1.60;99.90
24470;DHT22;12635;50.852;5.676;2023-01-24T01:07:04;1.60;99.90
24470;DHT22;12635;50.852;5.676;2023-01-24T01:09:31;1.70;99.90
24470;DHT22;12635;50.852;5.676;2023-01-24T01:11:58;1.70;99.90
24470;DHT22;12635;50.852;5.676;2023-01-24T01:14:25;1.70;99.90
24470;DHT22;12635;50.852;5.676;2023-01-24T01:16:53;1.70;99.90
24470;DHT22;12635;50.852;5.676;2023-01-24T01:19:20;1.70;99.90
24470;DHT22;12635;50.852;5.676;2023-01-24T01:21:47;1.70;99.90
24470;DHT22;12635;50.852;5.676;2023-01-24T01:24:15;1.80;99.90
24470;DHT22;12635;50.852;5.676;2023-01-24T01:26:42;1.80;99.90
24470;DHT22;12635;50.852;5.676;2023-01-24T01:29:09;1.90;99.90
24470;DHT22;12635;50.852;5.676;2023-01-24T01:31:35;1.90;99.90
24470;DHT22;12635;50.852;5.676;2023-01-24T01:34:04;2.00;99.90
24470;DHT22;12635;50.852;5.676;2023-01-24T01:36:30;2.00;99.90
24470;DHT22;12635;50.852;5.676;2023-01-24T01:38:57;2.00;99.90
24470;DHT22;12635;50.852;5.676;2023-01-24T01:41:24;1.90;99.90
24470;DHT22;12635;50.852;5.676;2023-01-24T01:43:51;1.80;99.90
24470;DHT22;12635;50.852;5.676;2023-01-24T01:46:50;1.90;99.90
24470;DHT22;12635;50.852;5.676;2023-01-24T01:49:20;1.90;99.90
24470;DHT22;12635;50.852;5.676;2023-01-24T01:51:48;1.90;99.90
24470;DHT22;12635;50.852;5.676;2023-01-24T01:54:17;1.80;99.90
24470;DHT22;12635;50.852;5.676;2023-01-24T01:56:46;1.80;99.90
24470;DHT22;12635;50.852;5.676;2023-01-24T01:59:16;1.80;99.90
24470;DHT22;12635;50.852;5.676;2023-01-24T02:01:44;1.80;99.90
24470;DHT22;12635;50.852;5.676;2023-01-24T02:04:14;1.80;99.90
24470;DHT22;12635;50.852;5.676;2023-01-24T02:06:52;1.80;99.90
24470;DHT22;12635;50.852;5.676;2023-01-24T02:09:21;1.80;99.90
24470;DHT22;12635;50.852;5.676;2023-01-24T02:11:49;1.80;99.90
24470;DHT22;12635;50.852;5.676;2023-01-24T02:14:17;1.80;99.90
24470;DHT22;12635;50.852;5.676;2023-01-24T02:17:01;1.80;99.90
24470;DHT22;12635;50.852;5.676;2023-01-24T02:19:45;1.80;99.90
24470;DHT22;12635;50.852;5.676;2023-01-24T02:22:15;1.80;99.90
24470;DHT22;12635;50.852;5.676;2023-01-24T02:24:45;1.80;99.90
24470;DHT22;12635;50.852;5.676;2023-01-24T02:27:15;1.80;99.90
24470;DHT22;12635;50.852;5.676;2023-01-24T02:29:42;1.80;99.90
24470;DHT22;12635;50.852;5.676;2023-01-24T02:32:09;1.80;99.90
24470;DHT22;12635;50.852;5.676;2023-01-24T02:34:36;1.80;99.90
24470;DHT22;12635;50.852;5.676;2023-01-24T02:37:04;1.80;99.90
24470;DHT22;12635;50.852;5.676;2023-01-24T02:39:34;1.80;99.90
24470;DHT22;12635;50.852;5.676;2023-01-24T02:42:03;1.80;99.90
24470;DHT22;12635;50.852;5.676;2023-01-24T02:44:34;1.80;99.90
24470;DHT22;12635;50.852;5.676;2023-01-24T02:47:03;1.80;99.90
24470;DHT22;12635;50.852;5.676;2023-01-24T02:49:30;1.80;99.90
24470;DHT22;12635;50.852;5.676;2023-01-24T02:51:57;1.90;99.90
24470;DHT22;12635;50.852;5.676;2023-01-24T02:54:41;1.90;99.90
24470;DHT22;12635;50.852;5.676;2023-01-24T02:57:08;1.80;99.90
24470;DHT22;12635;50.852;5.676;2023-01-24T02:59:54;1.80;99.90
24470;DHT22;12635;50.852;5.676;2023-01-24T03:02:21;1.80;99.90
24470;DHT22;12635;50.852;5.676;2023-01-24T03:04:48;1.80;99.90
24470;DHT22;12635;50.852;5.676;2023-01-24T03:07:15;1.80;99.90
24470;DHT22;12635;50.852;5.676;2023-01-24T03:09:42;1.80;99.90
24470;DHT22;12635;50.852;5.676;2023-01-24T03:12:12;1.70;99.90
24470;DHT22;12635;50.852;5.676;2023-01-24T03:14:58;1.80;99.90
24470;DHT22;12635;50.852;5.676;2023-01-24T03:17:42;1.80;99.90
24470;DHT22;12635;50.852;5.676;2023-01-24T03:20:26;1.90;99.90
24470;DHT22;12635;50.852;5.676;2023-01-24T03:23:11;1.90;99.90
24470;DHT22;12635;50.852;5.676;2023-01-24T03:25:55;1.80;99.90
24470;DHT22;12635;50.852;5.676;2023-01-24T03:28:40;1.80;99.90
24470;DHT22;12635;50.852;5.676;2023-01-24T03:31:26;1.80;99.90
24470;DHT22;12635;50.852;5.676;2023-01-24T03:34:10;1.80;99.90
24470;DHT22;12635;50.852;5.676;2023-01-24T03:36:54;1.80;99.90
24470;DHT22;12635;50.852;5.676;2023-01-24T03:39:21;1.70;99.90
24470;DHT22;12635;50.852;5.676;2023-01-24T03:42:06;1.70;99.90
24470;DHT22;12635;50.852;5.676;2023-01-24T03:44:32;1.70;99.90
24470;DHT22;12635;50.852;5.676;2023-01-24T03:47:01;1.70;99.90
24470;DHT22;12635;50.852;5.676;2023-01-24T03:49:28;1.80;99.90
24470;DHT22;12635;50.852;5.676;2023-01-24T03:52:12;1.80;99.90
24470;DHT22;12635;50.852;5.676;2023-01-24T03:54:52;1.80;99.90
24470;DHT22;12635;50.852;5.676;2023-01-24T03:57:19;1.80;99.90
24470;DHT22;12635;50.852;5.676;2023-01-24T03:59:46;1.80;99.90
24470;DHT22;12635;50.852;5.676;2023-01-24T04:02:14;1.80;99.90
24470;DHT22;12635;50.852;5.676;2023-01-24T04:04:41;1.80;99.90
24470;DHT22;12635;50.852;5.676;2023-01-24T04:07:26;1.70;99.90
24470;DHT22;12635;50.852;5.676;2023-01-24T04:09:53;1.80;99.90
24470;DHT22;12635;50.852;5.676;2023-01-24T04:12:20;1.80;99.90
24470;DHT22;12635;50.852;5.676;2023-01-24T04:14:47;1.70;99.90
24470;DHT22;12635;50.852;5.676;2023-01-24T04:17:15;1.70;99.90
24470;DHT22;12635;50.852;5.676;2023-01-24T04:19:42;1.70;99.90
24470;DHT22;12635;50.852;5.676;2023-01-24T04:22:09;1.70;99.90
24470;DHT22;12635;50.852;5.676;2023-01-24T04:24:36;1.70;99.90
24470;DHT22;12635;50.852;5.676;2023-01-24T04:27:03;1.70;99.90
24470;DHT22;12635;50.852;5.676;2023-01-24T04:29:30;1.70;99.90
24470;DHT22;12635;50.852;5.676;2023-01-24T04:31:57;1.60;99.90
24470;DHT22;12635;50.852;5.676;2023-01-24T04:34:25;1.70;99.90
24470;DHT22;12635;50.852;5.676;2023-01-24T04:36:52;1.70;99.90
24470;DHT22;12635;50.852;5.676;2023-01-24T04:39:20;1.70;99.90
24470;DHT22;12635;50.852;5.676;2023-01-24T04:41:47;1.70;99.90
24470;DHT22;12635;50.852;5.676;2023-01-24T04:44:14;1.70;99.90
24470;DHT22;12635;50.852;5.676;2023-01-24T04:46:41;1.60;99.90
24470;DHT22;12635;50.852;5.676;2023-01-24T04:49:08;1.60;99.90
24470;DHT22;12635;50.852;5.676;2023-01-24T04:51:36;1.60;99.90
24470;DHT22;12635;50.852;5.676;2023-01-24T04:54:07;1.60;99.90
24470;DHT22;12635;50.852;5.676;2023-01-24T04:56:34;1.60;99.90
24470;DHT22;12635;50.852;5.676;2023-01-24T04:59:01;1.60;99.90
24470;DHT22;12635;50.852;5.676;2023-01-24T05:01:27;1.60;99.90
24470;DHT22;12635;50.852;5.676;2023-01-24T05:03:54;1.50;99.90
24470;DHT22;12635;50.852;5.676;2023-01-24T05:06:24;1.60;99.90
24470;DHT22;12635;50.852;5.676;2023-01-24T05:08:52;1.60;99.90
24470;DHT22;12635;50.852;5.676;2023-01-24T05:11:19;1.70;99.90
24470;DHT22;12635;50.852;5.676;2023-01-24T05:13:46;1.70;99.90
24470;DHT22;12635;50.852;5.676;2023-01-24T05:16:13;1.60;99.90
24470;DHT22;12635;50.852;5.676;2023-01-24T05:18:40;1.60;99.90
24470;DHT22;12635;50.852;5.676;2023-01-24T05:21:07;1.50;99.90
24470;DHT22;12635;50.852;5.676;2023-01-24T05:23:34;1.50;99.90
24470;DHT22;12635;50.852;5.676;2023-01-24T05:26:03;1.50;99.90
24470;DHT22;12635;50.852;5.676;2023-01-24T05:28:30;1.50;99.90
24470;DHT22;12635;50.852;5.676;2023-01-24T05:30:57;1.50;99.90
24470;DHT22;12635;50.852;5.676;2023-01-24T05:33:24;1.50;99.90
24470;DHT22;12635;50.852;5.676;2023-01-24T05:35:56;1.50;99.90
24470;DHT22;12635;50.852;5.676;2023-01-24T05:38:23;1.50;99.90
24470;DHT22;12635;50.852;5.676;2023-01-24T05:40:50;1.50;99.90
24470;DHT22;12635;50.852;5.676;2023-01-24T05:43:18;1.50;99.90
24470;DHT22;12635;50.852;5.676;2023-01-24T05:45:45;1.50;99.90
24470;DHT22;12635;50.852;5.676;2023-01-24T05:48:12;1.50;99.90
24470;DHT22;12635;50.852;5.676;2023-01-24T05:50:39;1.50;99.90
24470;DHT22;12635;50.852;5.676;2023-01-24T05:53:05;1.50;99.90
24470;DHT22;12635;50.852;5.676;2023-01-24T05:55:32;1.50;99.90
24470;DHT22;12635;50.852;5.676;2023-01-24T05:57:59;1.50;99.90
24470;DHT22;12635;50.852;5.676;2023-01-24T06:00:28;1.50;99.90
24470;DHT22;12635;50.852;5.676;2023-01-24T06:02:55;1.50;99.90
24470;DHT22;12635;50.852;5.676;2023-01-24T06:05:26;1.50;99.90
24470;DHT22;12635;50.852;5.676;2023-01-24T06:07:53;1.50;99.90
24470;DHT22;12635;50.852;5.676;2023-01-24T06:10:20;1.50;99.90
24470;DHT22;12635;50.852;5.676;2023-01-24T06:12:47;1.50;99.90
24470;DHT22;12635;50.852;5.676;2023-01-24T06:15:14;1.50;99.90
24470;DHT22;12635;50.852;5.676;2023-01-24T06:17:42;1.50;99.90
24470;DHT22;12635;50.852;5.676;2023-01-24T06:20:10;1.50;99.90
24470;DHT22;12635;50.852;5.676;2023-01-24T06:22:39;1.60;99.90
24470;DHT22;12635;50.852;5.676;2023-01-24T06:25:10;1.60;99.90
24470;DHT22;12635;50.852;5.676;2023-01-24T06:27:41;1.50;99.90
24470;DHT22;12635;50.852;5.676;2023-01-24T06:30:11;1.50;99.90
24470;DHT22;12635;50.852;5.676;2023-01-24T06:32:40;1.50;99.90
24470;DHT22;12635;50.852;5.676;2023-01-24T06:35:16;1.40;99.90
24470;DHT22;12635;50.852;5.676;2023-01-24T06:37:46;1.50;99.90
24470;DHT22;12635;50.852;5.676;2023-01-24T06:40:14;1.50;99.90
24470;DHT22;12635;50.852;5.676;2023-01-24T06:42:41;1.40;99.90
24470;DHT22;12635;50.852;5.676;2023-01-24T06:45:09;1.40;99.90
24470;DHT22;12635;50.852;5.676;2023-01-24T06:47:36;1.40;99.90
24470;DHT22;12635;50.852;5.676;2023-01-24T06:50:05;1.40;99.90
24470;DHT22;12635;50.852;5.676;2023-01-24T06:52:34;1.40;99.90
24470;DHT22;12635;50.852;5.676;2023-01-24T06:55:01;1.50;99.90
24470;DHT22;12635;50.852;5.676;2023-01-24T06:57:28;1.50;99.90
24470;DHT22;12635;50.852;5.676;2023-01-24T06:59:55;1.40;99.90
24470;DHT22;12635;50.852;5.676;2023-01-24T07:02:22;1.50;99.90
24470;DHT22;12635;50.852;5.676;2023-01-24T07:04:49;1.40;99.90
24470;DHT22;12635;50.852;5.676;2023-01-24T07:07:16;1.50;99.90
24470;DHT22;12635;50.852;5.676;2023-01-24T07:09:44;1.50;99.90
24470;DHT22;12635;50.852;5.676;2023-01-24T07:12:11;1.40;99.90
24470;DHT22;12635;50.852;5.676;2023-01-24T07:14:38;1.40;99.90
24470;DHT22;12635;50.852;5.676;2023-01-24T07:17:05;1.40;99.90
24470;DHT22;12635;50.852;5.676;2023-01-24T07:19:32;1.50;99.90
24470;DHT22;12635;50.852;5.676;2023-01-24T07:22:02;1.40;99.90
24470;DHT22;12635;50.852;5.676;2023-01-24T07:24:29;1.40;99.90
24470;DHT22;12635;50.852;5.676;2023-01-24T07:26:58;1.40;99.90
24470;DHT22;12635;50.852;5.676;2023-01-24T07:29:24;1.40;99.90
24470;DHT22;12635;50.852;5.676;2023-01-24T07:31:52;1.40;99.90
24470;DHT22;12635;50.852;5.676;2023-01-24T07:34:19;1.40;99.90
24470;DHT22;12635;50.852;5.676;2023-01-24T07:36:46;1.40;99.90
24470;DHT22;12635;50.852;5.676;2023-01-24T07:39:14;1.40;99.90
24470;DHT22;12635;50.852;5.676;2023-01-24T07:41:41;1.40;99.90
24470;DHT22;12635;50.852;5.676;2023-01-24T07:44:10;1.40;99.90
24470;DHT22;12635;50.852;5.676;2023-01-24T07:46:37;1.40;99.90
24470;DHT22;12635;50.852;5.676;2023-01-24T07:49:04;1.40;99.90
24470;DHT22;12635;50.852;5.676;2023-01-24T07:51:31;1.40;99.90
24470;DHT22;12635;50.852;5.676;2023-01-24T07:53:58;1.40;99.90
24470;DHT22;12635;50.852;5.676;2023-01-24T07:56:25;1.50;99.90
24470;DHT22;12635;50.852;5.676;2023-01-24T07:58:52;1.50;99.90
24470;DHT22;12635;50.852;5.676;2023-01-24T08:01:21;1.50;99.90
24470;DHT22;12635;50.852;5.676;2023-01-24T08:03:48;1.50;99.90
24470;DHT22;12635;50.852;5.676;2023-01-24T08:06:15;1.50;99.90
24470;DHT22;12635;50.852;5.676;2023-01-24T08:08:42;1.60;99.90
24470;DHT22;12635;50.852;5.676;2023-01-24T08:11:09;1.60;99.90
24470;DHT22;12635;50.852;5.676;2023-01-24T08:13:39;1.60;99.90
24470;DHT22;12635;50.852;5.676;2023-01-24T08:16:06;1.50;99.90
24470;DHT22;12635;50.852;5.676;2023-01-24T08:18:35;1.50;99.90
24470;DHT22;12635;50.852;5.676;2023-01-24T08:21:02;1.50;99.90
24470;DHT22;12635;50.852;5.676;2023-01-24T08:23:30;1.60;99.90
24470;DHT22;12635;50.852;5.676;2023-01-24T08:25:57;1.50;99.90
24470;DHT22;12635;50.852;5.676;2023-01-24T08:28:24;1.50;99.90
24470;DHT22;12635;50.852;5.676;2023-01-24T08:30:51;1.60;99.90
24470;DHT22;12635;50.852;5.676;2023-01-24T08:33:17;1.60;99.90
24470;DHT22;12635;50.852;5.676;2023-01-24T08:35:46;1.60;99.90
24470;DHT22;12635;50.852;5.676;2023-01-24T08:38:13;1.60;99.90
24470;DHT22;12635;50.852;5.676;2023-01-24T08:40:40;1.60;99.90
24470;DHT22;12635;50.852;5.676;2023-01-24T08:43:07;1.60;99.90
24470;DHT22;12635;50.852;5.676;2023-01-24T08:45:34;1.60;99.90
24470;DHT22;12635;50.852;5.676;2023-01-24T08:48:01;1.70;99.90
24470;DHT22;12635;50.852;5.676;2023-01-24T08:50:28;1.70;99.90
24470;DHT22;12635;50.852;5.676;2023-01-24T08:52:56;1.70;99.90
24470;DHT22;12635;50.852;5.676;2023-01-24T08:55:23;1.80;99.90
24470;DHT22;12635;50.852;5.676;2023-01-24T08:57:50;1.80;99.90
24470;DHT22;12635;50.852;5.676;2023-01-24T09:00:18;1.80;99.90
24470;DHT22;12635;50.852;5.676;2023-01-24T09:02:44;1.70;99.90
24470;DHT22;12635;50.852;5.676;2023-01-24T09:05:11;1.80;99.90
24470;DHT22;12635;50.852;5.676;2023-01-24T09:07:38;1.70;99.90
24470;DHT22;12635;50.852;5.676;2023-01-24T09:10:09;1.70;99.90
24470;DHT22;12635;50.852;5.676;2023-01-24T09:12:36;1.70;99.90
24470;DHT22;12635;50.852;5.676;2023-01-24T09:15:03;1.80;99.90
24470;DHT22;12635;50.852;5.676;2023-01-24T09:17:30;1.90;99.90
24470;DHT22;12635;50.852;5.676;2023-01-24T09:19:57;1.90;99.90
24470;DHT22;12635;50.852;5.676;2023-01-24T09:22:24;1.90;99.90
24470;DHT22;12635;50.852;5.676;2023-01-24T09:24:51;1.90;99.90
24470;DHT22;12635;50.852;5.676;2023-01-24T09:27:20;2.00;99.90
24470;DHT22;12635;50.852;5.676;2023-01-24T09:29:46;2.00;99.90
24470;DHT22;12635;50.852;5.676;2023-01-24T09:32:13;1.90;99.90
24470;DHT22;12635;50.852;5.676;2023-01-24T09:34:42;1.90;99.90
24470;DHT22;12635;50.852;5.676;2023-01-24T09:37:12;1.90;99.90
24470;DHT22;12635;50.852;5.676;2023-01-24T09:39:39;2.00;99.90
24470;DHT22;12635;50.852;5.676;2023-01-24T09:42:08;2.00;99.90
24470;DHT22;12635;50.852;5.676;2023-01-24T09:44:39;2.00;99.90
24470;DHT22;12635;50.852;5.676;2023-01-24T09:47:17;2.00;99.90
24470;DHT22;12635;50.852;5.676;2023-01-24T09:49:46;2.10;99.90
24470;DHT22;12635;50.852;5.676;2023-01-24T09:52:16;2.10;99.90
24470;DHT22;12635;50.852;5.676;2023-01-24T09:54:47;2.10;99.90
24470;DHT22;12635;50.852;5.676;2023-01-24T09:57:17;2.10;99.90
24470;DHT22;12635;50.852;5.676;2023-01-24T09:59:48;2.10;99.90
24470;DHT22;12635;50.852;5.676;2023-01-24T10:02:18;2.10;99.90
24470;DHT22;12635;50.852;5.676;2023-01-24T10:04:45;2.10;99.90
24470;DHT22;12635;50.852;5.676;2023-01-24T10:07:23;2.10;99.90
24470;DHT22;12635;50.852;5.676;2023-01-24T10:09:54;2.20;99.90
24470;DHT22;12635;50.852;5.676;2023-01-24T10:12:29;2.30;99.90
24470;DHT22;12635;50.852;5.676;2023-01-24T10:15:01;2.20;99.90
24470;DHT22;12635;50.852;5.676;2023-01-24T10:17:37;2.20;99.90
24470;DHT22;12635;50.852;5.676;2023-01-24T10:20:12;2.20;99.90
24470;DHT22;12635;50.852;5.676;2023-01-24T10:22:49;2.30;99.90
24470;DHT22;12635;50.852;5.676;2023-01-24T10:25:22;2.30;99.90
24470;DHT22;12635;50.852;5.676;2023-01-24T10:27:51;2.30;99.90
24470;DHT22;12635;50.852;5.676;2023-01-24T10:30:22;2.30;99.90
24470;DHT22;12635;50.852;5.676;2023-01-24T10:32:54;2.30;99.90
24470;DHT22;12635;50.852;5.676;2023-01-24T10:35:25;2.30;99.90
24470;DHT22;12635;50.852;5.676;2023-01-24T10:37:53;2.30;99.90
24470;DHT22;12635;50.852;5.676;2023-01-24T10:40:22;2.30;99.90
24470;DHT22;12635;50.852;5.676;2023-01-24T10:42:51;2.40;99.90
24470;DHT22;12635;50.852;5.676;2023-01-24T10:48:01;2.40;99.90
24470;DHT22;12635;50.852;5.676;2023-01-24T10:50:34;2.40;99.90
24470;DHT22;12635;50.852;5.676;2023-01-24T10:53:24;2.50;99.90
24470;DHT22;12635;50.852;5.676;2023-01-24T10:55:56;2.50;99.90
24470;DHT22;12635;50.852;5.676;2023-01-24T10:58:23;2.60;99.90
24470;DHT22;12635;50.852;5.676;2023-01-24T11:00:55;2.60;99.90
24470;DHT22;12635;50.852;5.676;2023-01-24T11:03:25;2.50;99.90
24470;DHT22;12635;50.852;5.676;2023-01-24T11:05:53;2.40;99.90
24470;DHT22;12635;50.852;5.676;2023-01-24T11:08:21;2.40;99.90
24470;DHT22;12635;50.852;5.676;2023-01-24T11:10:50;2.40;99.90
24470;DHT22;12635;50.852;5.676;2023-01-24T11:16:00;2.50;99.90
24470;DHT22;12635;50.852;5.676;2023-01-24T11:18:29;2.50;99.90
24470;DHT22;12635;50.852;5.676;2023-01-24T11:21:07;2.60;99.90
24470;DHT22;12635;50.852;5.676;2023-01-24T11:23:34;2.50;99.90
24470;DHT22;12635;50.852;5.676;2023-01-24T11:26:02;2.40;99.90
24470;DHT22;12635;50.852;5.676;2023-01-24T11:28:31;2.30;99.90
24470;DHT22;12635;50.852;5.676;2023-01-24T11:30:58;2.30;99.90
24470;DHT22;12635;50.852;5.676;2023-01-24T11:33:32;2.30;99.90
24470;DHT22;12635;50.852;5.676;2023-01-24T11:36:01;2.30;99.90
24470;DHT22;12635;50.852;5.676;2023-01-24T11:38:29;2.30;99.90
24470;DHT22;12635;50.852;5.676;2023-01-24T11:41:03;2.30;99.90
24470;DHT22;12635;50.852;5.676;2023-01-24T11:43:35;2.40;99.90
24470;DHT22;12635;50.852;5.676;2023-01-24T11:46:07;2.40;99.90
24470;DHT22;12635;50.852;5.676;2023-01-24T11:48:38;2.40;99.90
24470;DHT22;12635;50.852;5.676;2023-01-24T11:51:09;2.40;99.90
24470;DHT22;12635;50.852;5.676;2023-01-24T11:53:49;2.50;99.90
24470;DHT22;12635;50.852;5.676;2023-01-24T11:56:22;2.50;99.90
24470;DHT22;12635;50.852;5.676;2023-01-24T11:58:57;2.50;99.90
24470;DHT22;12635;50.852;5.676;2023-01-24T12:01:30;2.40;99.90
24470;DHT22;12635;50.852;5.676;2023-01-24T12:04:11;2.40;99.90
24470;DHT22;12635;50.852;5.676;2023-01-24T12:06:43;2.20;99.90
24470;DHT22;12635;50.852;5.676;2023-01-24T12:09:16;2.20;99.90
24470;DHT22;12635;50.852;5.676;2023-01-24T12:11:46;2.20;99.90
24470;DHT22;12635;50.852;5.676;2023-01-24T12:14:20;2.20;99.90
24470;DHT22;12635;50.852;5.676;2023-01-24T12:16:52;2.20;99.90
24470;DHT22;12635;50.852;5.676;2023-01-24T12:19:31;2.30;99.90
24470;DHT22;12635;50.852;5.676;2023-01-24T12:22:01;2.40;99.90
24470;DHT22;12635;50.852;5.676;2023-01-24T12:24:30;2.40;99.90
24470;DHT22;12635;50.852;5.676;2023-01-24T12:26:58;2.30;99.90
24470;DHT22;12635;50.852;5.676;2023-01-24T12:29:27;2.30;99.90
24470;DHT22;12635;50.852;5.676;2023-01-24T12:31:56;2.30;99.90
24470;DHT22;12635;50.852;5.676;2023-01-24T12:34:31;2.30;99.90
24470;DHT22;12635;50.852;5.676;2023-01-24T12:36:59;2.40;99.90
24470;DHT22;12635;50.852;5.676;2023-01-24T12:39:30;2.40;99.90
24470;DHT22;12635;50.852;5.676;2023-01-24T12:41:59;2.20;99.90
24470;DHT22;12635;50.852;5.676;2023-01-24T12:44:28;2.10;99.90
24470;DHT22;12635;50.852;5.676;2023-01-24T12:47:02;2.20;99.90
24470;DHT22;12635;50.852;5.676;2023-01-24T12:49:36;2.30;99.90
24470;DHT22;12635;50.852;5.676;2023-01-24T12:52:07;2.30;99.90
24470;DHT22;12635;50.852;5.676;2023-01-24T12:54:38;2.30;99.90
24470;DHT22;12635;50.852;5.676;2023-01-24T12:57:11;2.30;99.90
24470;DHT22;12635;50.852;5.676;2023-01-24T12:59:40;2.20;99.90
24470;DHT22;12635;50.852;5.676;2023-01-24T13:02:19;2.10;99.90
24470;DHT22;12635;50.852;5.676;2023-01-24T13:04:53;2.10;99.90
24470;DHT22;12635;50.852;5.676;2023-01-24T13:07:28;2.10;99.90
24470;DHT22;12635;50.852;5.676;2023-01-24T13:10:00;2.10;99.90
24470;DHT22;12635;50.852;5.676;2023-01-24T13:12:30;2.00;99.90
24470;DHT22;12635;50.852;5.676;2023-01-24T13:14:58;2.10;99.90
24470;DHT22;12635;50.852;5.676;2023-01-24T13:17:38;2.20;99.90
24470;DHT22;12635;50.852;5.676;2023-01-24T13:20:15;2.20;99.90
24470;DHT22;12635;50.852;5.676;2023-01-24T13:22:49;2.20;99.90
24470;DHT22;12635;50.852;5.676;2023-01-24T13:25:21;2.20;99.90
24470;DHT22;12635;50.852;5.676;2023-01-24T13:27:51;2.10;99.90
24470;DHT22;12635;50.852;5.676;2023-01-24T13:30:26;2.10;99.90
24470;DHT22;12635;50.852;5.676;2023-01-24T13:32:59;2.10;99.90
24470;DHT22;12635;50.852;5.676;2023-01-24T13:35:29;2.10;99.90
24470;DHT22;12635;50.852;5.676;2023-01-24T13:37:58;2.00;99.90
24470;DHT22;12635;50.852;5.676;2023-01-24T13:40:27;1.90;99.90
24470;DHT22;12635;50.852;5.676;2023-01-24T13:42:56;1.90;99.90
24470;DHT22;12635;50.852;5.676;2023-01-24T13:53:59;2.10;99.90
24470;DHT22;12635;50.852;5.676;2023-01-24T13:56:27;2.10;99.90
24470;DHT22;12635;50.852;5.676;2023-01-24T13:58:54;2.10;99.90
24470;DHT22;12635;50.852;5.676;2023-01-24T14:01:21;2.00;99.90
24470;DHT22;12635;50.852;5.676;2023-01-24T14:03:52;2.00;99.90
24470;DHT22;12635;50.852;5.676;2023-01-24T14:06:20;2.10;99.90
24470;DHT22;12635;50.852;5.676;2023-01-24T14:08:54;2.10;99.90
24470;DHT22;12635;50.852;5.676;2023-01-24T14:11:36;2.10;99.90
24470;DHT22;12635;50.852;5.676;2023-01-24T14:16:56;2.10;99.90
24470;DHT22;12635;50.852;5.676;2023-01-24T14:19:24;2.10;99.90
24470;DHT22;12635;50.852;5.676;2023-01-24T14:21:55;2.10;99.90
24470;DHT22;12635;50.852;5.676;2023-01-24T14:24:24;2.10;99.90
24470;DHT22;12635;50.852;5.676;2023-01-24T14:26:54;2.00;99.90
24470;DHT22;12635;50.852;5.676;2023-01-24T14:29:22;1.90;99.90
24470;DHT22;12635;50.852;5.676;2023-01-24T14:31:52;1.90;99.90
24470;DHT22;12635;50.852;5.676;2023-01-24T14:34:23;1.90;99.90
24470;DHT22;12635;50.852;5.676;2023-01-24T14:36:56;1.80;99.90
24470;DHT22;12635;50.852;5.676;2023-01-24T14:39:24;1.80;99.90
24470;DHT22;12635;50.852;5.676;2023-01-24T14:41:55;1.80;99.90
24470;DHT22;12635;50.852;5.676;2023-01-24T14:44:23;1.90;99.90
24470;DHT22;12635;50.852;5.676;2023-01-24T14:46:51;1.90;99.90
24470;DHT22;12635;50.852;5.676;2023-01-24T14:49:24;1.90;99.90
24470;DHT22;12635;50.852;5.676;2023-01-24T14:51:51;1.90;99.90
24470;DHT22;12635;50.852;5.676;2023-01-24T14:54:19;1.90;99.90
24470;DHT22;12635;50.852;5.676;2023-01-24T14:56:46;1.90;99.90
24470;DHT22;12635;50.852;5.676;2023-01-24T14:59:16;1.80;99.90
24470;DHT22;12635;50.852;5.676;2023-01-24T15:01:43;1.70;99.90
24470;DHT22;12635;50.852;5.676;2023-01-24T15:04:21;1.70;99.90
24470;DHT22;12635;50.852;5.676;2023-01-24T15:07:02;1.70;99.90
24470;DHT22;12635;50.852;5.676;2023-01-24T15:09:29;1.70;99.90
24470;DHT22;12635;50.852;5.676;2023-01-24T15:11:56;1.70;99.90
24470;DHT22;12635;50.852;5.676;2023-01-24T15:14:24;1.80;99.90
24470;DHT22;12635;50.852;5.676;2023-01-24T15:16:52;1.70;99.90
24470;DHT22;12635;50.852;5.676;2023-01-24T15:19:20;1.70;99.90
24470;DHT22;12635;50.852;5.676;2023-01-24T15:21:48;1.70;99.90
24470;DHT22;12635;50.852;5.676;2023-01-24T15:24:18;1.70;99.90
24470;DHT22;12635;50.852;5.676;2023-01-24T15:26:46;1.60;99.90
24470;DHT22;12635;50.852;5.676;2023-01-24T15:32:00;1.60;99.90
24470;DHT22;12635;50.852;5.676;2023-01-24T15:34:27;1.60;99.90
24470;DHT22;12635;50.852;5.676;2023-01-24T15:36:57;1.60;99.90
24470;DHT22;12635;50.852;5.676;2023-01-24T15:39:25;1.60;99.90
24470;DHT22;12635;50.852;5.676;2023-01-24T15:41:52;1.60;99.90
24470;DHT22;12635;50.852;5.676;2023-01-24T15:44:41;1.60;99.90
24470;DHT22;12635;50.852;5.676;2023-01-24T15:47:18;1.60;99.90
24470;DHT22;12635;50.852;5.676;2023-01-24T15:50:12;1.60;99.90
24470;DHT22;12635;50.852;5.676;2023-01-24T15:53:12;1.60;99.90
24470;DHT22;12635;50.852;5.676;2023-01-24T15:55:39;1.50;99.90
24470;DHT22;12635;50.852;5.676;2023-01-24T15:58:07;1.50;99.90
24470;DHT22;12635;50.852;5.676;2023-01-24T16:00:34;1.50;99.90
24470;DHT22;12635;50.852;5.676;2023-01-24T16:03:03;1.50;99.90
24470;DHT22;12635;50.852;5.676;2023-01-24T16:05:30;1.50;99.90
24470;DHT22;12635;50.852;5.676;2023-01-24T16:07:57;1.40;99.90
24470;DHT22;12635;50.852;5.676;2023-01-24T16:10:24;1.40;99.90
24470;DHT22;12635;50.852;5.676;2023-01-24T16:12:51;1.40;99.90
24470;DHT22;12635;50.852;5.676;2023-01-24T16:15:19;1.40;99.90
24470;DHT22;12635;50.852;5.676;2023-01-24T16:17:46;1.40;99.90
24470;DHT22;12635;50.852;5.676;2023-01-24T16:20:19;1.40;99.90